Time;durP1;ratioP1;P1;durP2;ratioP2;P2;SDS_P1;SDS_P2;PMS_P1;PMS_P2;Temp;Humidity;BMP_temperature;BMP_pressure;BME280_temperature;BME280_humidity;BME280_pressure;Samples;Min_cycle;Max_cycle;Signal;HPM_P1;HPM_P2
2022/12/06 02:04:40;;;;;;;9.85;6.47;;;;;;;4.81;78.52;100127.28;1084794;54;20038;-81
2022/12/06 02:05:43;;;;;;;10.18;6.40;;;;;;;4.90;78.66;100128.47;1084688;54;20157;-79
2022/12/06 02:06:48;;;;;;;9.40;6.72;;;;;;;4.82;78.81;100121.03;1084649;54;20042;-78
2022/12/06 02:07:50;;;;;;;9.65;6.47;;;;;;;4.92;78.63;100129.19;1084879;54;20046;-78
2022/12/06 02:08:56;;;;;;;8.10;5.97;;;;;;;4.97;78.62;100117.31;1085376;46;20126;-78
2022/12/06 02:09:58;;;;;;;9.15;6.25;;;;;;;5.05;78.37;100127.38;1084608;54;20058;-80
2022/12/06 02:11:04;;;;;;;8.55;6.15;;;;;;;4.97;78.27;100121.78;1084472;54;20039;-79
2022/12/06 02:12:13;;;;;;;8.35;5.90;;;;;;;4.99;78.40;100123.34;1084555;54;20054;-79
2022/12/06 02:13:15;;;;;;;8.77;6.40;;;;;;;5.02;78.61;100117.00;1086073;31;20571;-80
2022/12/06 02:14:24;;;;;;;10.73;6.45;;;;;;;5.04;78.34;100115.09;1084805;54;20034;-78
2022/12/06 02:15:35;;;;;;;8.93;5.75;;;;;;;5.05;78.27;100111.50;1084646;54;20077;-79
2022/12/06 02:16:55;;;;;;;8.75;6.30;;;;;;;4.97;78.27;100108.53;1085345;39;20432;-79
2022/12/06 02:18:10;;;;;;;7.95;5.80;;;;;;;4.90;78.13;100109.91;1084675;47;20098;-79
2022/12/06 02:19:30;;;;;;;8.68;5.95;;;;;;;4.96;78.13;100106.84;1084592;54;20050;-79
2022/12/06 02:20:45;;;;;;;8.23;5.78;;;;;;;5.05;78.28;100106.19;1084624;54;20038;-79
2022/12/06 02:21:54;;;;;;;8.45;5.85;;;;;;;4.99;78.31;100111.94;1085274;39;20440;-79
2022/12/06 02:23:33;;;;;;;8.10;5.70;;;;;;;4.97;78.28;100108.53;1084453;54;20046;-79
2022/12/06 02:24:57;;;;;;;9.70;6.03;;;;;;;4.89;78.47;100111.72;1084181;54;20614;-79
2022/12/06 02:26:18;;;;;;;9.63;7.15;;;;;;;4.84;79.03;100114.66;1084088;54;20038;-79
2022/12/06 02:27:53;;;;;;;9.18;6.45;;;;;;;4.88;78.40;100114.47;1086277;46;20046;-79
2022/12/06 02:29:27;;;;;;;8.38;5.90;;;;;;;4.82;78.56;100116.56;1084386;54;20062;-79
2022/12/06 02:30:47;;;;;;;10.85;6.90;;;;;;;4.73;79.26;100114.56;1084198;54;20070;-79
2022/12/06 02:31:56;;;;;;;10.88;6.25;;;;;;;4.77;79.06;100116.06;1084507;54;20049;-78
2022/12/06 02:33:05;;;;;;;8.98;5.85;;;;;;;4.94;78.70;100109.59;1084966;54;20572;-79
2022/12/06 02:34:15;;;;;;;7.88;5.60;;;;;;;5.05;78.28;100111.50;1084593;54;20034;-80
2022/12/06 02:35:26;;;;;;;8.70;5.90;;;;;;;5.07;77.84;100114.03;1084995;31;20505;-79
2022/12/06 02:36:31;;;;;;;8.80;5.72;;;;;;;4.89;78.45;100105.56;1084314;54;20062;-79
2022/12/06 02:37:43;;;;;;;8.43;5.65;;;;;;;4.89;78.34;100113.53;1084257;54;20043;-80
2022/12/06 02:38:50;;;;;;;18.38;5.70;;;;;;;4.92;78.27;100114.16;1084254;54;20080;-80
2022/12/06 02:39:59;;;;;;;8.15;5.75;;;;;;;5.02;78.05;100105.56;1084283;54;20050;-80
2022/12/06 02:41:06;;;;;;;8.65;5.38;;;;;;;4.83;78.45;100105.03;1084091;54;20069;-79
2022/12/06 02:42:16;;;;;;;10.32;6.10;;;;;;;4.99;78.31;100096.03;1084014;54;20042;-80
2022/12/06 02:43:24;;;;;;;15.95;6.70;;;;;;;4.93;78.00;100101.72;1084051;54;20595;-80
2022/12/06 02:44:30;;;;;;;10.57;6.35;;;;;;;4.88;78.30;100099.41;1084918;31;20525;-79
2022/12/06 02:45:41;;;;;;;8.80;6.22;;;;;;;4.89;78.45;100100.28;1084623;39;20475;-79
2022/12/06 02:46:42;;;;;;;;;;;;;;;4.97;77.96;100098.75;1084317;54;20038;-79
2022/12/06 02:47:48;;;;;;;9.73;5.65;;;;;;;4.97;78.09;100100.59;1084240;54;19977;-80
2022/12/06 02:48:52;;;;;;;8.20;5.85;;;;;;;5.10;77.92;100104.03;1084135;54;20050;-80
2022/12/06 02:49:58;;;;;;;8.50;6.28;;;;;;;4.97;78.21;100096.13;1084214;54;20061;-79
2022/12/06 02:51:04;;;;;;;10.20;6.22;;;;;;;4.99;77.95;100096.03;1084492;54;21124;-79
2022/12/06 02:52:08;;;;;;;8.70;6.43;;;;;;;5.03;77.87;100094.00;1084179;54;20050;-79
2022/12/06 02:53:14;;;;;;;10.50;6.75;;;;;;;5.05;77.60;100098.25;1084288;54;20049;-80
2022/12/06 02:54:20;;;;;;;9.02;7.03;;;;;;;5.12;77.70;100096.84;1086693;54;20038;-80
2022/12/06 02:55:23;;;;;;;9.32;6.32;;;;;;;5.09;77.51;100104.16;1086512;54;20077;-80
2022/12/06 02:56:30;;;;;;;9.25;6.30;;;;;;;5.20;77.29;100100.75;1086105;54;20042;-79
2022/12/06 02:57:39;;;;;;;9.55;6.50;;;;;;;5.10;77.46;100098.75;1086538;54;20122;-80
2022/12/06 02:58:43;;;;;;;9.07;6.40;;;;;;;5.04;77.79;100099.19;1086504;46;20094;-81
2022/12/06 02:59:55;;;;;;;8.35;5.80;;;;;;;5.23;76.91;100092.59;1085865;54;20138;-80
2022/12/06 03:01:04;;;;;;;8.60;6.20;;;;;;;5.11;77.33;100100.44;1086075;54;20046;-82
2022/12/06 03:02:10;;;;;;;8.48;5.82;;;;;;;5.08;77.28;100095.38;1086819;46;20050;-79
2022/12/06 03:03:41;;;;;;;7.80;5.82;;;;;;;4.99;77.53;100093.38;1086682;46;20026;-80
2022/12/06 03:04:58;;;;;;;12.00;6.55;;;;;;;4.88;77.95;100099.41;1086157;54;20038;-78
2022/12/06 03:06:30;;;;;;;8.98;6.45;;;;;;;4.91;78.25;100091.25;1085370;31;20622;-79
2022/12/06 03:07:40;;;;;;;9.93;6.40;;;;;;;4.89;78.45;100095.81;1084452;46;20030;-80
2022/12/06 03:08:50;;;;;;;9.27;6.35;;;;;;;4.92;78.48;100098.25;1084271;54;20098;-80
2022/12/06 03:10:05;;;;;;;10.38;6.35;;;;;;;4.88;78.56;100098.56;1084301;54;20101;-80
2022/12/06 03:11:07;;;;;;;10.32;6.20;;;;;;;5.03;78.43;100096.66;1084155;54;20054;-80
2022/12/06 03:12:19;;;;;;;9.15;7.13;;;;;;;4.88;78.38;100101.22;1084803;39;20479;-80
2022/12/06 03:13:26;;;;;;;10.32;6.47;;;;;;;4.87;78.92;100091.59;1084321;54;20065;-80
2022/12/06 03:14:36;;;;;;;9.27;6.75;;;;;;;4.97;78.50;100092.63;1085172;54;20061;-79
2022/12/06 03:15:48;;;;;;;8.35;5.78;;;;;;;4.94;78.17;100087.53;1087186;54;20050;-80
2022/12/06 03:17:00;;;;;;;10.98;7.38;;;;;;;4.84;78.95;100088.19;1087569;54;20039;-81
2022/12/06 03:18:15;;;;;;;10.55;7.07;;;;;;;4.86;78.87;100087.22;1087575;54;20033;-79
2022/12/06 03:19:20;;;;;;;9.68;7.05;;;;;;;4.78;78.91;100085.09;1088248;46;20014;-80
2022/12/06 03:20:30;;;;;;;8.93;6.65;;;;;;;4.83;79.20;100080.34;1086008;54;20027;-79
2022/12/06 03:21:38;;;;;;;11.73;7.15;;;;;;;4.82;79.19;100078.66;1084214;54;20077;-80
2022/12/06 03:22:47;;;;;;;9.70;6.47;;;;;;;4.87;78.98;100078.34;1084162;54;20038;-79
2022/12/06 03:23:50;;;;;;;10.80;7.60;;;;;;;4.95;78.97;100081.28;1084119;54;20065;-79
2022/12/06 03:24:54;;;;;;;9.18;6.57;;;;;;;5.02;78.69;100081.72;1083997;54;20081;-79
2022/12/06 03:25:59;;;;;;;9.52;6.85;;;;;;;4.89;78.98;100077.25;1084382;46;20061;-79
2022/12/06 03:27:08;;;;;;;10.45;7.57;;;;;;;4.87;79.24;100079.16;1084070;54;20038;-79
2022/12/06 03:28:12;;;;;;;10.00;7.05;;;;;;;4.93;79.33;100080.53;1084074;54;20046;-79
2022/12/06 03:29:19;;;;;;;12.50;8.52;;;;;;;5.04;78.79;100085.94;1084871;46;20035;-79
2022/12/06 03:30:21;;;;;;;10.85;7.65;;;;;;;4.92;79.31;100081.50;1084137;54;20039;-80
2022/12/06 03:31:26;;;;;;;11.25;8.25;;;;;;;5.00;78.99;100081.84;1083910;54;20030;-79
2022/12/06 03:32:34;;;;;;;11.23;7.70;;;;;;;5.01;78.87;100078.19;1084158;54;20096;-79
2022/12/06 03:33:44;;;;;;;12.43;8.15;;;;;;;4.90;79.49;100075.47;1083981;54;20039;-81
2022/12/06 03:34:49;;;;;;;10.95;7.47;;;;;;;5.02;79.01;100073.75;1084427;54;20091;-79
2022/12/06 03:35:55;;;;;;;10.75;7.78;;;;;;;4.99;79.18;100069.53;1084017;54;20041;-80
2022/12/06 03:36:58;;;;;;;11.00;7.93;;;;;;;5.15;78.48;100075.44;1084439;46;20098;-80
2022/12/06 03:38:07;;;;;;;9.93;7.95;;;;;;;5.24;78.18;100075.72;1084842;39;20440;-80
2022/12/06 03:39:13;;;;;;;12.32;8.80;;;;;;;5.08;78.68;100070.66;1084075;54;20042;-80
2022/12/06 03:40:20;;;;;;;11.30;8.20;;;;;;;5.14;78.61;100063.13;1084155;54;20038;-80
2022/12/06 03:41:28;;;;;;;11.55;8.13;;;;;;;5.12;78.58;100064.22;1083973;54;20035;-79
2022/12/06 03:42:30;;;;;;;14.02;10.20;;;;;;;5.00;78.79;100063.28;1084412;54;20054;-81
2022/12/06 03:43:35;;;;;;;12.25;10.15;;;;;;;4.90;79.38;100059.59;1083971;54;20045;-80
2022/12/06 03:44:36;;;;;;;12.55;10.05;;;;;;;4.84;79.42;100059.03;1083864;54;20098;-79
2022/12/06 03:45:46;;;;;;;11.57;9.90;;;;;;;4.89;79.42;100066.66;1084052;54;20141;-80
2022/12/06 03:46:51;;;;;;;11.27;8.48;;;;;;;4.81;79.56;100061.94;1083901;54;20117;-79
2022/12/06 03:48:04;;;;;;;11.10;8.18;;;;;;;4.79;79.86;100063.84;1083953;54;20062;-79
2022/12/06 03:49:09;;;;;;;11.88;7.85;;;;;;;4.88;79.58;100057.03;1083981;54;20054;-80
2022/12/06 03:50:20;;;;;;;9.57;7.53;;;;;;;4.92;79.21;100058.50;1084044;54;20068;-79
2022/12/06 03:51:26;;;;;;;11.18;7.90;;;;;;;4.91;79.43;100053.34;1084063;54;20050;-79
2022/12/06 03:52:31;;;;;;;12.93;8.32;;;;;;;4.81;79.59;100061.94;1086382;39;20488;-79
2022/12/06 03:53:44;;;;;;;11.70;7.95;;;;;;;4.82;79.71;100053.00;1083927;54;20584;-80
2022/12/06 03:54:48;;;;;;;9.02;6.93;;;;;;;4.88;79.44;100062.31;1083792;54;20035;-79
2022/12/06 03:55:49;;;;;;;8.85;6.90;;;;;;;4.87;79.40;100059.78;1083921;54;20034;-79
2022/12/06 03:56:53;;;;;;;9.30;6.68;;;;;;;4.94;79.20;100058.41;1084152;54;20038;-78
2022/12/06 03:57:55;;;;;;;9.45;6.40;;;;;;;4.96;78.82;100067.91;1083838;47;20680;-79
2022/12/06 03:58:59;;;;;;;9.55;7.13;;;;;;;4.92;79.14;100055.00;1084137;54;20065;-78
2022/12/06 04:00:01;;;;;;;10.38;7.25;;;;;;;4.91;79.22;100066.59;1083860;54;20102;-79
2022/12/06 04:01:05;;;;;;;8.82;6.43;;;;;;;4.96;79.09;100059.13;1084015;54;20038;-78
2022/12/06 04:02:07;;;;;;;9.18;6.20;;;;;;;5.12;78.66;100056.25;1083937;54;20043;-78
2022/12/06 04:03:14;;;;;;;9.95;6.28;;;;;;;5.12;78.44;100057.09;1083969;54;20042;-79
2022/12/06 04:04:16;;;;;;;8.98;6.28;;;;;;;5.02;78.90;100058.69;1083476;54;20102;-78
2022/12/06 04:05:20;;;;;;;9.35;6.28;;;;;;;5.01;78.82;100057.00;1084365;46;20049;-79
2022/12/06 04:06:21;;;;;;;8.13;6.57;;;;;;;5.04;78.75;100061.25;1085155;31;20564;-78
2022/12/06 04:07:25;;;;;;;9.13;6.03;;;;;;;5.06;78.97;100052.25;1084253;54;20038;-79
2022/12/06 04:08:27;;;;;;;8.25;6.07;;;;;;;5.03;78.84;100055.09;1084346;54;20638;-79
2022/12/06 04:10:48;;;;;;;8.93;6.40;;;;;;;4.89;79.33;100057.88;1084306;54;20042;-79
2022/12/06 04:11:49;;;;;;;9.65;6.03;;;;;;;4.92;79.16;100050.56;1083780;54;20044;-78
2022/12/06 04:13:00;;;;;;;8.30;5.95;;;;;;;5.02;78.94;100056.03;1084789;39;20455;-78
2022/12/06 04:14:05;;;;;;;9.35;6.05;;;;;;;4.87;79.55;100059.78;1084285;54;20038;-78
2022/12/06 04:15:09;;;;;;;8.40;5.70;;;;;;;4.88;79.17;100050.88;1084198;54;20042;-79
2022/12/06 04:18:49;;;;;;;7.80;5.82;;;;;;;4.92;79.10;100055.88;1084235;54;20065;-78
2022/12/06 04:19:51;;;;;;;9.63;6.30;;;;;;;4.77;79.50;100055.13;1084271;54;20645;-78
2022/12/06 04:23:50;;;;;;;12.95;6.32;;;;;;;4.86;79.78;100050.16;1083927;54;20034;-78
2022/12/06 04:24:51;;;;;;;8.02;5.93;;;;;;;4.81;79.91;100046.03;1083494;54;20073;-79
2022/12/06 04:25:55;;;;;;;10.18;6.40;;;;;;;4.93;79.42;100043.44;1083696;54;20133;-77
2022/12/06 04:28:40;;;;;;;9.30;5.78;;;;;;;4.97;79.21;100044.94;1083435;54;20073;-79
2022/12/06 04:38:42;;;;;;;7.63;5.47;;;;;;;4.67;80.58;100036.41;1085360;54;20045;-80
2022/12/06 04:39:44;;;;;;;8.50;6.15;;;;;;;4.66;80.67;100034.72;1084194;54;20068;-77
2022/12/06 04:40:49;;;;;;;11.48;6.35;;;;;;;4.66;80.92;100041.78;1084172;54;20084;-79
2022/12/06 04:44:25;;;;;;;8.00;5.85;;;;;;;4.76;80.55;100031.41;1084239;54;20052;-77
2022/12/06 04:45:29;;;;;;;7.85;6.03;;;;;;;4.75;80.44;100041.16;1084141;54;20061;-78
2022/12/06 04:46:32;;;;;;;7.88;5.68;;;;;;;4.80;80.46;100028.44;1084115;54;20149;-77
2022/12/06 04:47:36;;;;;;;7.78;6.18;;;;;;;4.81;80.22;100022.19;1084436;54;20038;-78
2022/12/06 04:48:39;;;;;;;7.70;5.47;;;;;;;4.90;80.00;100022.50;1084498;54;20062;-77
2022/12/06 04:49:46;;;;;;;9.07;6.00;;;;;;;4.89;79.85;100023.44;1084331;54;20102;-78
2022/12/06 04:50:48;;;;;;;7.90;5.75;;;;;;;4.94;80.00;100024.81;1084335;54;20039;-78
2022/12/06 04:51:52;;;;;;;7.65;5.90;;;;;;;4.87;80.32;100018.25;1083871;54;20627;-77
2022/12/06 04:52:53;;;;;;;8.35;6.40;;;;;;;4.83;80.49;100022.91;1083804;54;20679;-78
2022/12/06 04:53:57;;;;;;;8.98;6.18;;;;;;;4.82;80.37;100021.22;1084087;47;20734;-78
2022/12/06 04:55:02;;;;;;;8.63;6.03;;;;;;;4.86;80.27;100019.22;1084348;54;20579;-79
2022/12/06 04:56:04;;;;;;;8.32;6.05;;;;;;;4.86;80.20;100021.00;1084691;54;20046;-78
2022/12/06 04:57:10;;;;;;;8.63;6.25;;;;;;;4.87;80.48;100015.59;1084636;54;20039;-77
2022/12/06 04:58:12;;;;;;;8.80;6.20;;;;;;;4.87;80.44;100022.69;1085406;46;20032;-78
2022/12/06 04:59:16;;;;;;;8.35;5.68;;;;;;;4.85;80.57;100020.16;1085288;54;20060;-78
2022/12/06 05:00:18;;;;;;;8.95;5.95;;;;;;;4.93;80.18;100017.81;1085260;54;20062;-77
2022/12/06 05:01:22;;;;;;;7.97;5.78;;;;;;;4.86;80.42;100023.66;1085094;54;20038;-77
2022/12/06 05:02:24;;;;;;;9.80;6.55;;;;;;;4.79;80.59;100029.41;1085324;54;20071;-78
2022/12/06 05:03:28;;;;;;;9.20;6.68;;;;;;;4.87;80.36;100023.53;1085251;54;20073;-78
2022/12/06 05:04:30;;;;;;;8.73;6.75;;;;;;;4.88;80.61;100029.69;1085175;54;20098;-78
2022/12/06 05:05:37;;;;;;;9.43;6.25;;;;;;;4.94;80.37;100022.16;1084778;54;20626;-79
2022/12/06 05:06:38;;;;;;;12.27;6.13;;;;;;;4.97;80.23;100021.09;1085880;39;20476;-79
2022/12/06 05:07:42;;;;;;;10.07;6.85;;;;;;;4.95;80.42;100020.34;1085848;31;20582;-77
2022/12/06 05:08:44;;;;;;;8.13;6.00;;;;;;;5.02;79.94;100012.81;1085445;54;20932;-77
2022/12/06 05:09:48;;;;;;;8.07;5.65;;;;;;;5.03;79.91;100022.47;1085402;54;20035;-77
2022/12/06 05:10:50;;;;;;;8.13;5.75;;;;;;;5.02;79.78;100016.31;1085639;39;20492;-78
2022/12/06 05:11:54;;;;;;;8.40;5.95;;;;;;;5.01;80.11;100017.25;1085440;54;20034;-78
2022/12/06 05:12:55;;;;;;;10.05;6.93;;;;;;;5.04;80.25;100019.69;1084985;54;20089;-78
2022/12/06 05:14:00;;;;;;;9.10;5.65;;;;;;;5.09;79.96;100014.94;1085341;54;20038;-78
2022/12/06 05:15:05;;;;;;;8.38;6.45;;;;;;;5.03;79.94;100017.16;1085561;54;20524;-78
2022/12/06 05:16:07;;;;;;;7.85;5.75;;;;;;;5.06;79.76;100023.09;1085371;39;20460;-78
2022/12/06 05:17:11;;;;;;;8.20;6.55;;;;;;;5.03;80.07;100022.47;1085147;54;20065;-78
2022/12/06 05:18:14;;;;;;;8.15;6.25;;;;;;;5.00;80.40;100020.88;1085026;54;20050;-79
2022/12/06 05:19:18;;;;;;;8.68;5.82;;;;;;;5.06;79.90;100020.44;1084941;54;20065;-77
2022/12/06 05:20:20;;;;;;;8.88;6.40;;;;;;;5.04;80.28;100026.81;1085084;54;20042;-77
2022/12/06 05:21:27;;;;;;;8.63;5.80;;;;;;;5.25;79.57;100024.41;1085838;46;20035;-76
2022/12/06 05:22:31;;;;;;;8.25;6.30;;;;;;;5.26;79.17;100023.47;1085127;54;20061;-78
2022/12/06 05:23:36;;;;;;;8.60;6.30;;;;;;;5.24;79.68;100023.53;1085130;54;20130;-78
2022/12/06 05:24:37;;;;;;;8.25;6.35;;;;;;;5.19;79.54;100019.56;1085233;54;20594;-78
2022/12/06 05:25:42;;;;;;;7.97;6.25;;;;;;;5.17;79.68;100029.44;1085443;54;20066;-78
2022/12/06 05:26:46;;;;;;;9.23;6.68;;;;;;;5.20;79.62;100022.09;1085169;54;20069;-78
2022/12/06 05:27:48;;;;;;;9.63;6.30;;;;;;;5.14;79.79;100022.53;1085069;54;20047;-77
2022/12/06 05:28:52;;;;;;;8.63;6.18;;;;;;;5.15;79.90;100008.31;1085230;54;20161;-78
2022/12/06 05:29:54;;;;;;;8.60;6.00;;;;;;;5.05;80.12;100015.25;1085292;54;20046;-78
2022/12/06 05:30:58;;;;;;;9.68;6.05;;;;;;;5.10;79.83;100016.59;1085401;54;20039;-77
2022/12/06 05:32:00;;;;;;;9.05;6.53;;;;;;;5.01;80.43;100014.59;1085210;54;20038;-78
2022/12/06 05:33:04;;;;;;;8.48;6.47;;;;;;;4.95;80.78;100025.66;1085502;54;20607;-77
2022/12/06 05:34:05;;;;;;;9.18;6.60;;;;;;;4.82;81.03;100021.22;1085349;54;20066;-78
2022/12/06 05:35:10;;;;;;;8.27;6.30;;;;;;;4.90;81.12;100012.72;1085472;54;20034;-79
2022/12/06 05:36:14;;;;;;;9.93;6.65;;;;;;;4.92;81.09;100015.25;1084982;54;20069;-78
2022/12/06 05:37:21;;;;;;;8.43;6.18;;;;;;;4.97;80.94;100016.63;1085255;54;20061;-78
2022/12/06 05:38:23;;;;;;;8.63;6.20;;;;;;;5.09;80.35;100017.59;1086355;46;20053;-79
2022/12/06 05:39:28;;;;;;;8.20;5.85;;;;;;;5.12;80.44;100017.34;1086201;54;20038;-78
2022/12/06 05:40:29;;;;;;;9.65;6.40;;;;;;;5.09;80.61;100016.72;1085154;54;20039;-78
2022/12/06 05:41:33;;;;;;;9.10;6.88;;;;;;;5.26;79.96;100015.50;1085130;54;20599;-78
2022/12/06 05:42:35;;;;;;;9.05;6.35;;;;;;;5.20;80.20;100015.94;1085151;54;20085;-77
2022/12/06 05:43:40;;;;;;;11.68;6.47;;;;;;;5.21;80.21;100022.94;1085185;54;20038;-78
2022/12/06 05:44:42;;;;;;;8.68;5.95;;;;;;;5.23;80.14;100015.72;1085013;54;20061;-77
2022/12/06 05:45:46;;;;;;;9.93;6.70;;;;;;;5.10;80.57;100016.59;1085026;54;20043;-78
2022/12/06 05:46:47;;;;;;;8.77;5.82;;;;;;;5.26;80.20;100015.50;1085383;54;20050;-78
2022/12/06 05:47:51;;;;;;;8.35;6.25;;;;;;;5.26;79.91;100021.63;1086925;54;20034;-78
2022/12/06 05:48:56;;;;;;;9.38;6.60;;;;;;;5.08;80.73;100020.31;1088640;46;20031;-78
2022/12/06 05:49:57;;;;;;;9.50;6.55;;;;;;;5.07;80.46;100022.13;1087273;39;20344;-79
2022/12/06 05:51:01;;;;;;;8.05;6.03;;;;;;;5.10;80.50;100015.75;1085123;54;20035;-79
2022/12/06 05:52:04;;;;;;;9.30;6.93;;;;;;;4.97;81.27;100018.44;1085065;54;20517;-78
2022/12/06 05:53:11;;;;;;;9.30;7.00;;;;;;;4.90;81.06;100015.38;1085251;54;20038;-78
2022/12/06 05:54:13;;;;;;;9.75;7.05;;;;;;;4.92;81.28;100015.25;1085279;54;20050;-78
2022/12/06 05:55:17;;;;;;;8.50;6.50;;;;;;;5.05;80.90;100016.09;1085719;54;20069;-79
2022/12/06 05:56:19;;;;;;;10.77;7.28;;;;;;;4.89;80.87;100018.16;1085438;54;20085;-78
2022/12/06 05:57:23;;;;;;;9.05;6.85;;;;;;;4.87;81.26;100014.75;1085442;54;20153;-77
2022/12/06 05:58:25;;;;;;;10.05;6.60;;;;;;;4.82;81.24;100021.22;1085578;54;20149;-78
2022/12/06 05:59:29;;;;;;;10.05;6.30;;;;;;;4.87;81.41;100012.09;1085491;54;20104;-77
2022/12/06 06:00:31;;;;;;;9.38;6.97;;;;;;;4.86;81.51;100023.66;1085588;54;20073;-77
2022/12/06 06:01:35;;;;;;;8.60;6.10;;;;;;;4.90;81.38;100014.56;1085890;54;20039;-78
2022/12/06 06:02:36;;;;;;;10.38;7.13;;;;;;;4.87;81.60;100018.25;1085714;54;20146;-79
2022/12/06 06:03:41;;;;;;;9.73;7.45;;;;;;;5.01;80.88;100017.25;1086433;47;20086;-78
2022/12/06 06:04:42;;;;;;;10.13;6.80;;;;;;;4.99;80.73;100019.19;1088215;46;20038;-79
2022/12/06 06:05:51;;;;;;;9.63;6.95;;;;;;;4.84;80.91;100023.78;1086974;54;20098;-78
2022/12/06 06:06:53;;;;;;;10.25;7.45;;;;;;;4.79;81.54;100018.81;1086856;54;20035;-78
2022/12/06 06:07:58;;;;;;;11.45;7.72;;;;;;;4.87;81.38;100022.69;1087213;54;20061;-79
2022/12/06 06:09:02;;;;;;;9.07;6.78;;;;;;;4.96;81.30;100024.69;1087922;54;20090;-77
2022/12/06 06:10:09;;;;;;;11.52;7.40;;;;;;;4.91;81.06;100017.06;1088140;54;20038;-77
2022/12/06 06:11:13;;;;;;;10.93;7.55;;;;;;;4.86;81.28;100021.00;1087894;54;20026;-77
2022/12/06 06:12:18;;;;;;;10.23;7.70;;;;;;;4.82;81.53;100023.03;1087798;46;20057;-78
2022/12/06 06:13:19;;;;;;;10.65;7.35;;;;;;;4.88;81.32;100027.06;1087250;54;20038;-78
2022/12/06 06:14:24;;;;;;;11.63;7.55;;;;;;;4.91;81.35;100024.19;1087038;54;20040;-78
2022/12/06 06:15:25;;;;;;;11.73;7.50;;;;;;;4.91;81.40;100024.19;1085937;54;20097;-79
2022/12/06 06:16:31;;;;;;;9.85;7.82;;;;;;;5.00;81.27;100029.66;1085257;54;20050;-78
2022/12/06 06:17:33;;;;;;;8.73;6.35;;;;;;;5.12;80.92;100030.59;1085151;54;20044;-77
2022/12/06 06:18:37;;;;;;;10.20;7.57;;;;;;;4.99;80.93;100027.97;1085290;54;20038;-78
2022/12/06 06:19:39;;;;;;;9.70;6.93;;;;;;;4.95;81.46;100028.31;1085447;54;20066;-77
2022/12/06 06:20:43;;;;;;;10.20;7.75;;;;;;;4.89;81.39;100031.41;1085221;54;20058;-77
2022/12/06 06:21:45;;;;;;;10.07;7.43;;;;;;;5.07;80.88;100030.09;1085042;54;20137;-80
2022/12/06 06:22:49;;;;;;;8.93;6.82;;;;;;;5.00;81.01;100036.78;1085236;54;20039;-78
2022/12/06 06:23:54;;;;;;;9.20;7.15;;;;;;;4.87;81.80;100028.00;1086845;39;20579;-77
2022/12/06 06:24:58;;;;;;;10.65;8.18;;;;;;;4.79;81.99;100037.34;1086558;54;20065;-78
2022/12/06 06:26:07;;;;;;;10.00;7.55;;;;;;;4.86;81.79;100036.91;1086153;54;20045;-77
2022/12/06 06:27:11;;;;;;;9.50;7.60;;;;;;;4.87;81.83;100033.31;1085107;54;20054;-79
2022/12/06 06:28:13;;;;;;;11.63;8.52;;;;;;;4.79;81.99;100031.19;1085332;54;20042;-78
2022/12/06 06:29:17;;;;;;;12.52;8.77;;;;;;;4.67;82.12;100032.91;1085870;39;20534;-76
2022/12/06 06:30:19;;;;;;;11.63;8.15;;;;;;;4.74;82.27;100036.81;1085269;54;20061;-78
2022/12/06 06:31:24;;;;;;;12.65;8.48;;;;;;;4.64;82.82;100027.81;1085209;54;20038;-79
2022/12/06 06:32:25;;;;;;;9.82;7.90;;;;;;;4.76;82.34;100031.41;1085463;54;20045;-77
2022/12/06 06:33:29;;;;;;;12.75;8.27;;;;;;;4.66;82.61;100033.84;1085352;54;20086;-78
2022/12/06 06:34:31;;;;;;;11.15;7.72;;;;;;;4.62;82.95;100035.03;1085425;54;20069;-78
2022/12/06 06:35:35;;;;;;;10.88;8.57;;;;;;;4.59;83.13;100037.88;1085496;54;20038;-78
2022/12/06 06:36:40;;;;;;;12.32;9.18;;;;;;;4.59;83.30;100028.13;1085552;54;20107;-78
2022/12/06 06:37:41;;;;;;;11.52;7.97;;;;;;;4.65;82.83;100030.38;1085152;54;20034;-78
2022/12/06 06:38:45;;;;;;;11.65;8.60;;;;;;;4.61;82.92;100033.34;1085310;54;20039;-78
2022/12/06 06:39:47;;;;;;;13.35;9.20;;;;;;;4.77;82.89;100039.25;1085241;54;20073;-78
2022/12/06 06:40:53;;;;;;;11.45;8.80;;;;;;;4.74;82.78;100028.03;1085492;54;20038;-78
2022/12/06 06:41:55;;;;;;;10.88;7.80;;;;;;;4.75;82.81;100035.84;1086205;54;20094;-78
2022/12/06 06:43:16;;;;;;;11.77;8.82;;;;;;;4.75;82.79;100033.19;1086372;54;20034;-79
2022/12/06 06:44:21;;;;;;;15.10;8.73;;;;;;;4.65;83.48;100032.16;1085857;39;20441;-79
2022/12/06 06:45:23;;;;;;;11.25;8.15;;;;;;;4.73;83.23;100028.97;1085255;54;20042;-78
2022/12/06 06:46:27;;;;;;;9.35;7.05;;;;;;;4.91;82.73;100032.13;1085103;54;20046;-77
2022/12/06 06:47:28;;;;;;;11.18;8.10;;;;;;;4.86;82.52;100026.31;1085703;39;20563;-79
2022/12/06 06:48:35;;;;;;;12.73;8.88;;;;;;;4.81;82.45;100030.16;1085147;54;20038;-79
2022/12/06 06:49:39;;;;;;;12.63;8.70;;;;;;;4.76;82.99;100029.59;1085144;54;20038;-80
2022/12/06 06:50:44;;;;;;;13.80;9.20;;;;;;;4.79;83.00;100031.19;1085486;54;20056;-80
2022/12/06 06:51:48;;;;;;;9.20;7.20;;;;;;;4.96;82.41;100022.03;1085110;54;20109;-80
2022/12/06 06:52:49;;;;;;;9.95;8.18;;;;;;;5.09;82.19;100027.31;1085237;54;20588;-80
2022/12/06 06:53:54;;;;;;;9.30;6.95;;;;;;;5.17;81.53;100022.31;1084975;46;20057;-79
2022/12/06 06:54:58;;;;;;;10.43;7.45;;;;;;;5.16;81.74;100028.56;1085316;54;20042;-78
2022/12/06 06:56:03;;;;;;;12.52;9.30;;;;;;;5.04;81.77;100026.81;1085329;54;20042;-77
2022/12/06 06:57:08;;;;;;;12.93;8.32;;;;;;;4.86;82.32;100031.59;1086018;39;20781;-78
2022/12/06 06:58:10;;;;;;;12.30;9.07;;;;;;;4.74;82.88;100036.81;1085808;54;20042;-77
2022/12/06 06:59:14;;;;;;;11.18;8.20;;;;;;;4.84;82.94;100035.19;1086471;54;20083;-78
2022/12/06 07:00:17;;;;;;;12.00;8.52;;;;;;;5.00;82.21;100036.78;1086777;54;20069;-78
2022/12/06 07:01:23;;;;;;;12.93;8.75;;;;;;;4.92;82.03;100036.47;1087302;54;20061;-77
2022/12/06 07:02:26;;;;;;;10.52;8.00;;;;;;;4.81;82.47;100035.44;1086336;54;20054;-78
2022/12/06 07:03:32;;;;;;;12.50;8.90;;;;;;;4.83;82.60;100038.81;1087963;46;20038;-79
2022/12/06 07:04:34;;;;;;;11.68;8.63;;;;;;;4.91;82.45;100040.91;1086304;54;20038;-79
2022/12/06 07:05:38;;;;;;;11.07;8.25;;;;;;;4.93;82.03;100039.00;1086165;54;20042;-79
2022/12/06 07:06:40;;;;;;;11.40;8.68;;;;;;;4.89;82.14;100032.22;1085601;54;20053;-78
2022/12/06 07:07:46;;;;;;;11.30;8.82;;;;;;;4.82;82.58;100031.81;1088254;46;20157;-79
2022/12/06 07:08:48;;;;;;;10.95;8.50;;;;;;;4.78;82.54;100034.78;1086703;54;20076;-78
2022/12/06 07:09:52;;;;;;;11.07;8.48;;;;;;;4.77;82.77;100039.25;1086655;54;20045;-78
2022/12/06 07:10:54;;;;;;;10.63;8.73;;;;;;;4.72;83.00;100027.28;1086311;54;20047;-79
2022/12/06 07:12:01;;;;;;;15.43;9.73;;;;;;;4.81;82.60;100029.28;1086442;54;20038;-78
2022/12/06 07:13:02;;;;;;;11.57;9.00;;;;;;;4.69;83.09;100036.28;1086469;54;20034;-79
2022/12/06 07:14:07;;;;;;;10.88;8.60;;;;;;;4.90;82.39;100027.78;1086512;54;20042;-78
2022/12/06 07:15:10;;;;;;;11.27;8.30;;;;;;;4.67;82.95;100035.53;1086214;54;20043;-79
2022/12/06 07:16:17;;;;;;;11.20;8.80;;;;;;;4.78;82.52;100033.00;1086197;46;20026;-78
2022/12/06 07:17:18;;;;;;;12.18;9.10;;;;;;;4.76;82.91;100026.13;1085997;54;20124;-78
2022/12/06 07:18:24;;;;;;;12.55;9.25;;;;;;;4.81;82.49;100034.56;1085861;54;20042;-77
2022/12/06 07:19:28;;;;;;;10.40;8.18;;;;;;;4.80;82.45;100032.88;1085652;54;20042;-78
2022/12/06 07:20:30;;;;;;;11.52;8.32;;;;;;;4.74;82.82;100028.03;1085614;54;20034;-78
2022/12/06 07:21:35;;;;;;;10.98;8.32;;;;;;;4.64;83.34;100028.66;1086680;46;20034;-79
2022/12/06 07:22:37;;;;;;;10.85;8.13;;;;;;;4.65;83.33;100027.72;1085883;46;20050;-79
2022/12/06 07:23:42;;;;;;;11.50;8.20;;;;;;;4.70;82.93;100030.03;1085752;54;20049;-77
2022/12/06 07:24:44;;;;;;;11.32;8.82;;;;;;;4.73;83.07;100028.97;1085699;54;20077;-80
2022/12/06 07:25:48;;;;;;;10.55;7.78;;;;;;;4.78;82.63;100030.34;1085534;54;20034;-79
2022/12/06 07:26:53;;;;;;;13.35;9.25;;;;;;;4.83;82.56;100027.38;1085721;54;20069;-79
2022/12/06 07:28:00;;;;;;;11.02;8.52;;;;;;;4.74;82.88;100036.81;1086217;54;20073;-79
2022/12/06 07:29:01;;;;;;;11.57;8.48;;;;;;;4.76;83.02;100037.56;1085842;54;20069;-79
2022/12/06 07:30:09;;;;;;;12.98;10.02;;;;;;;4.68;83.08;100031.94;1086887;54;20277;-79
2022/12/06 07:31:12;;;;;;;12.43;9.32;;;;;;;4.84;82.74;100034.38;1086864;54;20061;-78